Time;durP1;ratioP1;P1;durP2;ratioP2;P2;SDS_P1;SDS_P2;PMS_P1;PMS_P2;Temp;Humidity;BMP_temperature;BMP_pressure;BME280_temperature;BME280_humidity;BME280_pressure;Samples;Min_cycle;Max_cycle;Signal;HPM_P1;HPM_P2
2022/07/12 00:00:53;;;;;;;5.30;2.20;;;14.10;99.90;;;;;;5015553;28;20042;-65
2022/07/12 00:03:19;;;;;;;27.58;2.00;;;13.80;99.90;;;;;;5009488;28;20046;-66
2022/07/12 00:05:44;;;;;;;5.68;1.27;;;13.50;99.90;;;;;;5000452;28;20477;-66
2022/07/12 00:08:10;;;;;;;1.55;1.08;;;13.50;99.90;;;;;;5001001;28;20105;-66
2022/07/12 00:10:36;;;;;;;1.70;1.42;;;13.50;99.90;;;;;;5003532;28;20054;-65
2022/07/12 00:13:03;;;;;;;1.60;1.50;;;13.70;99.90;;;;;;5002512;28;20156;-65
2022/07/12 00:15:29;;;;;;;1.98;1.60;;;13.60;99.90;;;;;;5022344;28;20038;-65
2022/07/12 00:17:54;;;;;;;4.15;1.45;;;13.70;99.90;;;;;;5020310;28;20108;-66
2022/07/12 00:20:20;;;;;;;30.42;2.30;;;13.80;99.90;;;;;;5009148;28;20042;-65
2022/07/12 00:22:46;;;;;;;1.33;1.05;;;13.60;99.90;;;;;;5026466;28;20034;-65
2022/07/12 00:25:12;;;;;;;2.88;1.67;;;13.40;99.90;;;;;;5029501;28;20041;-65
2022/07/12 00:27:37;;;;;;;6.15;3.88;;;13.40;99.90;;;;;;5019462;28;20049;-65
2022/07/12 00:30:05;;;;;;;11.02;4.18;;;13.60;99.90;;;;;;5009315;28;20048;-65
2022/07/12 00:32:30;;;;;;;5.70;3.60;;;13.70;99.90;;;;;;5012389;28;20042;-66
2022/07/12 00:34:56;;;;;;;8.90;4.97;;;13.60;99.90;;;;;;4999358;28;20041;-65
2022/07/12 00:37:22;;;;;;;7.20;4.57;;;13.70;99.90;;;;;;5039898;28;20040;-65
2022/07/12 00:39:48;;;;;;;8.65;4.88;;;13.80;99.90;;;;;;5028617;28;20061;-65
2022/07/12 00:42:13;;;;;;;7.20;3.72;;;13.80;99.90;;;;;;5004065;28;20049;-65
2022/07/12 00:44:39;;;;;;;4.60;3.70;;;14.00;99.90;;;;;;5022302;28;20037;-65
2022/07/12 00:47:05;;;;;;;3.97;3.58;;;13.90;99.90;;;;;;5026905;28;20141;-65
2022/07/12 00:49:31;;;;;;;3.65;3.05;;;13.70;99.90;;;;;;5014225;28;20042;-65
2022/07/12 00:51:57;;;;;;;2.33;2.00;;;15.10;99.90;;;;;;5003715;28;20102;-65
2022/07/12 00:54:23;;;;;;;2.50;1.88;;;13.60;99.90;;;;;;5014280;28;20069;-65
2022/07/12 00:56:49;;;;;;;2.28;1.45;;;;;;;;;;5019098;28;20043;-65
2022/07/12 00:59:15;;;;;;;4.05;1.75;;;;;;;;;;5001746;28;20098;-64
2022/07/12 01:01:41;;;;;;;2.25;1.30;;;13.70;99.90;;;;;;5002733;28;20038;-65
2022/07/12 01:04:07;;;;;;;3.10;1.25;;;13.70;99.90;;;;;;5015776;28;20030;-65
2022/07/12 01:06:33;;;;;;;2.83;2.10;;;13.50;99.90;;;;;;5001925;28;20038;-65
2022/07/12 01:08:59;;;;;;;10.98;2.70;;;13.60;99.90;;;;;;5003721;28;20070;-64
2022/07/12 01:11:25;;;;;;;1.90;1.67;;;13.20;99.90;;;;;;5003095;28;20042;-65
2022/07/12 01:13:52;;;;;;;3.67;2.08;;;14.40;99.90;;;;;;5001608;28;20061;-65
2022/07/12 01:16:19;;;;;;;14.35;3.03;;;13.40;99.90;;;;;;5010525;28;20053;-65
2022/07/12 01:18:46;;;;;;;19.27;2.33;;;;;;;;;;5042491;28;20462;-65
2022/07/12 01:21:18;;;;;;;22.88;1.88;;;12.60;99.90;;;;;;5009614;28;20070;-65
2022/07/12 01:23:45;;;;;;;1.30;1.00;;;12.50;99.90;;;;;;5030123;28;20044;-64
2022/07/12 01:26:11;;;;;;;9.07;1.90;;;12.60;99.90;;;;;;5012423;28;20030;-61
2022/07/12 01:28:38;;;;;;;11.93;1.80;;;;;;;;;;5001797;28;20113;-65
2022/07/12 01:31:04;;;;;;;9.50;1.88;;;12.50;99.90;;;;;;5002020;28;20042;-65
2022/07/12 01:33:30;;;;;;;2.10;1.30;;;;;;;;;;5016052;28;20049;-65
2022/07/12 01:35:56;;;;;;;1.73;1.25;;;12.80;99.90;;;;;;5021861;28;20044;-65
2022/07/12 01:38:22;;;;;;;41.83;2.92;;;12.80;99.90;;;;;;5003636;28;20121;-63
2022/07/12 01:40:48;;;;;;;11.05;1.58;;;12.80;99.90;;;;;;5008582;28;20137;-65
2022/07/12 01:43:14;;;;;;;1.90;1.35;;;12.70;99.90;;;;;;5006477;28;20030;-65
2022/07/12 01:45:41;;;;;;;1.75;0.85;;;12.90;99.90;;;;;;5021482;28;20104;-66
2022/07/12 01:48:06;;;;;;;7.05;0.90;;;12.60;99.90;;;;;;5033225;28;20042;-65
2022/07/12 01:50:32;;;;;;;1.30;1.08;;;;;;;;;;5001715;28;20045;-65
2022/07/12 01:53:00;;;;;;;1.15;0.80;;;12.70;99.90;;;;;;4997983;28;20066;-64
2022/07/12 01:55:25;;;;;;;5.85;1.20;;;12.80;99.90;;;;;;5002942;28;20050;-65
2022/07/12 01:57:52;;;;;;;6.07;1.10;;;12.70;99.90;;;;;;5020612;28;20112;-65
2022/07/12 02:00:19;;;;;;;39.08;1.92;;;12.70;99.90;;;;;;5004880;28;20502;-65
2022/07/12 02:02:47;;;;;;;51.13;3.33;;;12.50;99.90;;;;;;4997908;28;20042;-65
2022/07/12 02:05:12;;;;;;;51.70;3.58;;;12.60;99.90;;;;;;5011906;28;20037;-65
2022/07/12 02:07:39;;;;;;;12.52;2.40;;;12.50;99.90;;;;;;4999466;28;20065;-65
2022/07/12 02:10:06;;;;;;;6.95;2.22;;;12.40;99.90;;;;;;5021765;28;20081;-65
2022/07/12 02:12:31;;;;;;;11.88;2.10;;;12.40;99.90;;;;;;5030705;28;20081;-65
2022/07/12 02:14:57;;;;;;;19.85;2.10;;;12.50;99.90;;;;;;5026919;28;20095;-65
2022/07/12 02:17:22;;;;;;;11.02;2.75;;;12.50;99.90;;;;;;5006916;28;20054;-65
2022/07/12 02:19:48;;;;;;;2.17;1.67;;;12.50;99.90;;;;;;4998544;28;20049;-65
2022/07/12 02:22:14;;;;;;;4.07;2.03;;;12.40;99.90;;;;;;5007672;28;20044;-64
2022/07/12 02:24:39;;;;;;;8.70;2.25;;;12.30;99.90;;;;;;5003278;28;20043;-65
2022/07/12 02:27:06;;;;;;;6.80;2.55;;;12.40;99.90;;;;;;4997630;28;20465;-64
2022/07/12 02:29:32;;;;;;;13.07;2.30;;;12.10;99.90;;;;;;4998469;28;20053;-65
2022/07/12 02:31:57;;;;;;;3.47;2.13;;;12.20;99.90;;;;;;5026245;28;20031;-65
2022/07/12 02:34:23;;;;;;;4.28;2.10;;;12.10;99.90;;;;;;4998605;28;20046;-65
2022/07/12 02:36:48;;;;;;;17.92;2.47;;;12.30;99.90;;;;;;4998450;28;20030;-65
2022/07/12 02:39:14;;;;;;;8.82;2.25;;;12.30;99.90;;;;;;5006614;28;20054;-65
2022/07/12 02:41:39;;;;;;;3.83;2.17;;;12.10;99.90;;;;;;5019114;28;20103;-65
2022/07/12 02:44:05;;;;;;;45.33;3.60;;;12.30;99.90;;;;;;5021745;28;20039;-65
2022/07/12 02:46:31;;;;;;;27.60;3.00;;;12.30;99.90;;;;;;5008471;28;20041;-65
2022/07/12 02:48:57;;;;;;;7.43;2.10;;;12.30;99.90;;;;;;5022718;28;20033;-65
2022/07/12 02:51:23;;;;;;;18.05;2.63;;;12.20;99.90;;;;;;5014302;28;20070;-64
2022/07/12 02:53:48;;;;;;;10.73;2.72;;;12.10;99.90;;;;;;5009000;28;20046;-65
2022/07/12 02:56:14;;;;;;;5.20;2.60;;;12.30;99.90;;;;;;4996981;28;20070;-64
2022/07/12 02:58:40;;;;;;;6.20;2.70;;;12.20;99.90;;;;;;5025030;28;20041;-65
2022/07/12 03:01:05;;;;;;;18.25;2.85;;;12.50;99.90;;;;;;4997118;28;20042;-65
2022/07/12 03:03:31;;;;;;;66.28;5.20;;;12.40;99.90;;;;;;5000251;28;20104;-65
2022/07/12 03:05:57;;;;;;;54.50;3.78;;;12.20;99.90;;;;;;4999651;28;20535;-65
2022/07/12 03:08:23;;;;;;;30.95;3.17;;;12.40;99.90;;;;;;5001136;28;20457;-65
2022/07/12 03:10:49;;;;;;;17.52;2.80;;;12.20;99.90;;;;;;5008667;28;20041;-63
2022/07/12 03:13:14;;;;;;;21.33;2.75;;;12.20;99.90;;;;;;5021103;28;20122;-65
2022/07/12 03:15:40;;;;;;;18.40;3.17;;;12.40;99.90;;;;;;5001367;28;20038;-65
2022/07/12 03:18:06;;;;;;;46.60;3.53;;;12.30;99.90;;;;;;5008165;28;20113;-65
2022/07/12 03:20:31;;;;;;;28.55;2.63;;;12.20;99.90;;;;;;5006065;28;20065;-65
2022/07/12 03:22:57;;;;;;;59.35;3.92;;;12.20;99.90;;;;;;5016778;28;20046;-65
2022/07/12 03:25:24;;;;;;;44.17;3.80;;;12.20;99.90;;;;;;5026014;28;20030;-65
2022/07/12 03:27:49;;;;;;;53.50;4.05;;;12.20;99.90;;;;;;5001062;28;20046;-65
2022/07/12 03:30:15;;;;;;;6.70;2.60;;;12.00;99.90;;;;;;4999251;28;20511;-65
2022/07/12 03:32:42;;;;;;;18.35;2.75;;;12.20;99.90;;;;;;5011393;28;20138;-65
2022/07/12 03:35:08;;;;;;;55.75;4.03;;;12.30;99.90;;;;;;5015673;28;20088;-64
2022/07/12 03:37:42;;;;;;;29.80;3.08;;;12.20;99.90;;;;;;4999933;28;20046;-65
2022/07/12 03:40:09;;;;;;;2.85;2.40;;;12.00;99.90;;;;;;4998557;28;20097;-64
2022/07/12 03:42:35;;;;;;;5.32;2.13;;;12.10;99.90;;;;;;5006281;28;20038;-65
2022/07/12 03:45:01;;;;;;;17.23;2.42;;;12.10;99.90;;;;;;5003917;28;20431;-65
2022/07/12 03:47:26;;;;;;;12.02;2.58;;;11.80;99.90;;;;;;5010158;28;20046;-65
2022/07/12 03:49:52;;;;;;;2.30;1.98;;;12.00;99.90;;;;;;4998021;28;20567;-64
2022/07/12 03:52:18;;;;;;;14.52;2.20;;;12.00;99.90;;;;;;5026574;28;20113;-65
2022/07/12 03:54:43;;;;;;;16.67;2.05;;;11.90;99.90;;;;;;4998639;28;20049;-65
2022/07/12 03:57:15;;;;;;;5.82;1.98;;;12.00;99.90;;;;;;4999059;28;20042;-65
2022/07/12 03:59:42;;;;;;;2.22;1.95;;;11.90;99.90;;;;;;5026715;28;20127;-65
2022/07/12 04:02:07;;;;;;;6.40;2.10;;;12.00;99.90;;;;;;5035594;28;20037;-65
2022/07/12 04:04:33;;;;;;;15.52;2.10;;;11.80;99.90;;;;;;5024285;28;20037;-65
2022/07/12 04:06:58;;;;;;;2.60;1.70;;;11.90;99.90;;;;;;5035597;28;20474;-65
2022/07/12 04:09:24;;;;;;;2.53;1.70;;;11.80;99.90;;;;;;4997478;28;20048;-64
2022/07/12 04:11:49;;;;;;;2.30;1.80;;;11.90;99.90;;;;;;4998071;28;20042;-65
2022/07/12 04:14:15;;;;;;;2.08;1.70;;;12.10;99.90;;;;;;4996889;28;20077;-64
2022/07/12 04:16:41;;;;;;;5.18;1.77;;;12.10;99.90;;;;;;4997521;28;20038;-65
2022/07/12 04:19:08;;;;;;;2.00;1.63;;;12.10;99.90;;;;;;4998882;28;20113;-65
2022/07/12 04:21:34;;;;;;;3.75;2.08;;;12.10;99.90;;;;;;5011601;28;20048;-65
2022/07/12 04:24:00;;;;;;;4.88;2.15;;;12.20;99.90;;;;;;5007159;28;20404;-64
2022/07/12 04:26:26;;;;;;;6.78;2.05;;;12.10;99.90;;;;;;4999146;28;20038;-65
2022/07/12 04:28:51;;;;;;;7.28;2.47;;;12.20;99.90;;;;;;5015929;28;20050;-65
2022/07/12 04:31:17;;;;;;;4.50;2.22;;;12.00;99.90;;;;;;5001006;28;20042;-62
2022/07/12 04:33:42;;;;;;;5.78;2.58;;;12.00;99.90;;;;;;4995319;28;20130;-65
2022/07/12 04:36:08;;;;;;;3.42;2.20;;;12.00;99.90;;;;;;5020700;28;20088;-65
2022/07/12 04:38:33;;;;;;;3.22;2.30;;;12.00;99.90;;;;;;5009005;28;20135;-66
2022/07/12 04:40:59;;;;;;;2.45;2.15;;;12.10;99.90;;;;;;5017110;28;20138;-65
2022/07/12 04:43:24;;;;;;;2.10;1.90;;;12.20;99.90;;;;;;4998213;28;20130;-65
2022/07/12 04:45:51;;;;;;;2.92;2.30;;;12.40;99.90;;;;;;5007507;28;20084;-64
2022/07/12 04:48:16;;;;;;;3.42;2.92;;;12.50;99.90;;;;;;5030105;28;20113;-65
2022/07/12 04:50:43;;;;;;;3.55;2.92;;;12.50;99.90;;;;;;5036353;28;20112;-65
2022/07/12 04:53:09;;;;;;;4.22;3.08;;;12.80;99.90;;;;;;5023630;28;20056;-65
2022/07/12 04:55:35;;;;;;;5.25;3.45;;;12.70;99.90;;;;;;4997187;28;20034;-65
2022/07/12 04:58:01;;;;;;;5.18;4.00;;;13.00;99.90;;;;;;5014485;28;20043;-65
2022/07/12 05:00:26;;;;;;;5.78;4.30;;;13.20;99.90;;;;;;5004545;28;20042;-64
2022/07/12 05:02:53;;;;;;;7.97;4.55;;;13.40;99.90;;;;;;5022692;28;20045;-65
2022/07/12 05:05:19;;;;;;;4.93;3.75;;;13.60;99.90;;;;;;5006671;28;20070;-65
2022/07/12 05:07:44;;;;;;;3.13;2.40;;;14.30;99.90;;;;;;5007874;28;20065;-65
2022/07/12 05:10:10;;;;;;;3.30;2.67;;;15.50;99.90;;;;;;5011004;28;20065;-65
2022/07/12 05:12:35;;;;;;;3.22;2.78;;;15.40;99.90;;;;;;5031862;28;20455;-64
2022/07/12 05:15:01;;;;;;;3.47;2.80;;;16.20;99.90;;;;;;5036498;28;20064;-64
2022/07/12 05:17:27;;;;;;;3.00;2.40;;;17.80;99.90;;;;;;5007320;28;20045;-65
2022/07/12 05:19:52;;;;;;;2.53;2.20;;;17.50;99.90;;;;;;5001903;28;20042;-65
2022/07/12 05:22:18;;;;;;;3.33;2.30;;;17.70;99.90;;;;;;5012587;28;20041;-65
2022/07/12 05:24:44;;;;;;;3.13;2.30;;;18.00;99.90;;;;;;5021447;28;20042;-65
2022/07/12 05:27:09;;;;;;;2.75;2.35;;;19.60;99.90;;;;;;5014977;28;20034;-65
2022/07/12 05:29:35;;;;;;;3.55;2.63;;;17.80;99.90;;;;;;5003773;28;20046;-64
2022/07/12 05:32:01;;;;;;;2.45;1.90;;;17.40;99.90;;;;;;5003202;28;20041;-65
2022/07/12 05:34:27;;;;;;;4.28;2.40;;;17.10;99.90;;;;;;5004067;28;20113;-65
2022/07/12 05:36:53;;;;;;;2.67;2.20;;;16.90;99.90;;;;;;5027428;28;20041;-65
2022/07/12 05:39:19;;;;;;;4.70;2.50;;;16.80;99.90;;;;;;4999520;28;20090;-65
2022/07/12 05:41:46;;;;;;;4.22;2.53;;;16.30;99.90;;;;;;4999835;28;20053;-66
2022/07/12 05:44:12;;;;;;;3.45;2.90;;;16.30;99.90;;;;;;5001076;28;20097;-65
2022/07/12 05:46:39;;;;;;;4.05;2.70;;;16.20;99.90;;;;;;5013010;28;20049;-65
2022/07/12 05:49:05;;;;;;;3.50;2.67;;;16.20;99.90;;;;;;5002057;28;20438;-65
2022/07/12 05:54:15;;;;;;;4.17;3.23;;;16.10;99.90;;;;;;5000978;28;20372;-65
2022/07/12 05:56:40;;;;;;;4.15;3.35;;;15.90;99.90;;;;;;5015643;28;20305;-65
2022/07/12 05:59:06;;;;;;;4.80;2.83;;;15.70;99.90;;;;;;4998457;28;20116;-64
2022/07/12 06:01:31;;;;;;;4.10;3.58;;;15.70;99.90;;;;;;4998655;28;20081;-65
2022/07/12 06:03:57;;;;;;;4.78;3.40;;;16.00;99.90;;;;;;5006886;28;20049;-66
2022/07/12 06:06:22;;;;;;;4.18;3.50;;;15.90;99.90;;;;;;5022846;28;20113;-66
2022/07/12 06:08:48;;;;;;;4.72;3.78;;;16.00;99.90;;;;;;4998077;28;20045;-66
2022/07/12 06:11:13;;;;;;;4.43;3.45;;;15.80;99.90;;;;;;4999737;28;20039;-63
2022/07/12 06:13:39;;;;;;;5.15;3.03;;;16.10;99.90;;;;;;4999870;28;20065;-65
2022/07/12 06:16:09;;;;;;;5.22;3.45;;;15.90;99.90;;;;;;4999386;28;20417;-65
2022/07/12 06:18:35;;;;;;;4.82;3.70;;;16.00;99.90;;;;;;4999550;28;20058;-65
2022/07/12 06:21:01;;;;;;;5.28;3.90;;;16.10;99.90;;;;;;5000134;28;20030;-65
2022/07/12 06:23:26;;;;;;;5.25;3.55;;;16.20;99.90;;;;;;5001592;28;20566;-66
2022/07/12 06:25:52;;;;;;;4.72;3.40;;;16.10;99.90;;;;;;5009352;28;20396;-66
2022/07/12 06:28:18;;;;;;;6.65;3.70;;;16.40;99.90;;;;;;4998602;28;20038;-66
2022/07/12 06:30:43;;;;;;;5.88;3.40;;;16.50;99.90;;;;;;4996980;28;20050;-65
2022/07/12 06:33:09;;;;;;;6.78;3.47;;;16.60;99.90;;;;;;5010438;28;20092;-66
2022/07/12 06:35:35;;;;;;;4.60;3.88;;;16.70;99.90;;;;;;5000313;28;20045;-66
2022/07/12 06:38:01;;;;;;;4.65;3.15;;;16.70;99.90;;;;;;5003846;28;20556;-65
2022/07/12 06:40:27;;;;;;;3.53;3.03;;;16.80;99.90;;;;;;5017889;28;20054;-65
2022/07/12 06:42:52;;;;;;;4.35;2.83;;;17.30;99.90;;;;;;5010524;28;20474;-65
2022/07/12 06:45:18;;;;;;;5.22;3.40;;;17.40;99.90;;;;;;5012959;28;20548;-66
2022/07/12 06:47:44;;;;;;;3.80;3.00;;;17.20;99.90;;;;;;5011813;28;20412;-66
2022/07/12 06:50:09;;;;;;;4.18;3.38;;;17.70;99.90;;;;;;5001867;28;20046;-65
2022/07/12 06:52:35;;;;;;;4.22;2.92;;;17.60;99.90;;;;;;5001832;28;20049;-64
2022/07/12 06:55:01;;;;;;;3.72;3.05;;;17.90;99.90;;;;;;5029359;28;20380;-65
2022/07/12 06:57:29;;;;;;;5.63;3.15;;;17.80;99.90;;;;;;5004282;28;20045;-65
2022/07/12 06:59:58;;;;;;;3.53;2.75;;;18.00;99.90;;;;;;5015018;28;20038;-66
2022/07/12 07:02:23;;;;;;;3.67;2.40;;;18.00;99.90;;;;;;5003763;28;20046;-65
2022/07/12 07:04:49;;;;;;;4.97;2.72;;;18.30;99.90;;;;;;5003433;28;20113;-65
2022/07/12 07:07:14;;;;;;;2.63;2.38;;;18.00;99.90;;;;;;5002489;28;20072;-65
2022/07/12 07:09:41;;;;;;;15.77;4.70;;;18.20;99.90;;;;;;5001689;28;20046;-65
2022/07/12 07:12:07;;;;;;;3.97;2.80;;;18.40;99.90;;;;;;5002191;28;20046;-65
2022/07/12 07:14:33;;;;;;;5.10;2.85;;;18.30;99.90;;;;;;5013348;28;20077;-65
2022/07/12 07:16:59;;;;;;;3.20;2.65;;;18.30;99.90;;;;;;4999218;28;20074;-66
2022/07/12 07:19:26;;;;;;;3.10;2.40;;;18.60;99.90;;;;;;5004362;28;20046;-66
2022/07/12 07:21:52;;;;;;;3.47;2.72;;;18.50;99.90;;;;;;5014268;28;20052;-65
2022/07/12 07:24:18;;;;;;;3.88;2.70;;;18.70;99.90;;;;;;5005314;28;20042;-65
2022/07/12 07:26:43;;;;;;;5.55;3.22;;;18.50;99.90;;;;;;5025655;28;20042;-65
2022/07/12 07:31:53;;;;;;;3.88;3.50;;;18.50;99.90;;;;;;4996487;28;20042;-66
2022/07/12 07:34:18;;;;;;;3.72;2.95;;;18.90;99.90;;;;;;5008287;28;20049;-65
2022/07/12 07:36:44;;;;;;;7.13;2.83;;;18.70;99.90;;;;;;5006952;28;20033;-65
2022/07/12 07:39:10;;;;;;;4.18;2.75;;;18.80;99.90;;;;;;5028496;28;20053;-65
2022/07/12 07:41:35;;;;;;;3.65;2.50;;;19.00;99.90;;;;;;5015084;28;20415;-66
2022/07/12 07:44:01;;;;;;;4.30;2.63;;;19.30;99.90;;;;;;4996984;28;20045;-65
2022/07/12 07:46:26;;;;;;;3.33;2.92;;;19.10;99.90;;;;;;5008324;28;20444;-66
2022/07/12 07:48:52;;;;;;;4.60;2.90;;;19.20;99.90;;;;;;5008329;28;20030;-65
2022/07/12 07:51:18;;;;;;;7.75;3.03;;;20.90;99.90;;;;;;5036447;28;20172;-65
2022/07/12 07:53:44;;;;;;;3.33;2.10;;;19.60;99.90;;;;;;5002559;28;20038;-65
2022/07/12 07:56:09;;;;;;;4.55;2.22;;;19.40;99.90;;;;;;5007836;28;20453;-66
2022/07/12 07:58:35;;;;;;;3.70;2.25;;;19.50;99.90;;;;;;5032850;28;20492;-66
2022/07/12 08:01:00;;;;;;;2.83;2.17;;;19.70;99.90;;;;;;4999163;28;20125;-66
2022/07/12 08:03:26;;;;;;;3.70;2.67;;;19.90;99.90;;;;;;4997008;28;20044;-66
2022/07/12 08:05:52;;;;;;;3.97;2.83;;;19.90;99.90;;;;;;4998277;28;20408;-66
2022/07/12 08:08:18;;;;;;;2.65;1.77;;;20.00;99.90;;;;;;4995389;28;20072;-66
2022/07/12 08:10:44;;;;;;;4.60;2.42;;;20.00;99.90;;;;;;5003773;28;20041;-66
2022/07/12 08:13:10;;;;;;;4.90;2.80;;;20.00;99.90;;;;;;5020386;28;20113;-66
2022/07/12 08:15:36;;;;;;;2.78;2.38;;;19.90;99.90;;;;;;4997680;28;20042;-66
2022/07/12 08:18:03;;;;;;;2.90;2.10;;;20.40;99.90;;;;;;4996639;28;20096;-66
2022/07/12 08:20:28;;;;;;;4.22;2.35;;;20.30;99.90;;;;;;4995769;28;20051;-65
2022/07/12 08:22:54;;;;;;;4.40;2.90;;;21.20;99.90;;;;;;5000107;28;20073;-65
2022/07/12 08:25:19;;;;;;;3.03;2.72;;;20.20;99.90;;;;;;5020635;28;20120;-65
2022/07/12 08:27:45;;;;;;;3.60;3.10;;;20.10;99.90;;;;;;5010998;28;20049;-65
2022/07/12 08:30:11;;;;;;;5.57;3.20;;;20.60;99.90;;;;;;5007671;28;20041;-65
2022/07/12 08:32:37;;;;;;;3.83;3.42;;;20.00;99.90;;;;;;5036571;28;20502;-65
2022/07/12 08:35:03;;;;;;;4.97;3.00;;;20.40;99.90;;;;;;5029674;28;20049;-65
2022/07/12 08:37:29;;;;;;;5.05;3.03;;;20.20;99.90;;;;;;4994636;28;20050;-65
2022/07/12 08:39:54;;;;;;;3.05;2.72;;;20.60;99.90;;;;;;5021826;28;20582;-65
2022/07/12 08:42:20;;;;;;;5.78;3.15;;;20.40;99.90;;;;;;4994687;28;20042;-65
2022/07/12 08:44:54;;;;;;;3.53;2.97;;;20.50;99.90;;;;;;4996315;28;20034;-65
2022/07/12 08:47:21;;;;;;;2.83;2.55;;;20.80;99.90;;;;;;5007388;28;20489;-65
2022/07/12 08:50:10;;;;;;;2.72;2.42;;;20.80;99.90;;;;;;4997741;28;20054;-63
2022/07/12 08:52:40;;;;;;;3.45;2.30;;;20.90;99.90;;;;;;5011737;28;20056;-65
2022/07/12 08:55:16;;;;;;;3.78;3.17;;;20.80;99.90;;;;;;5008661;28;20046;-63
2022/07/12 08:57:42;;;;;;;3.10;2.33;;;21.00;99.90;;;;;;5004525;28;20053;-65
2022/07/12 09:00:08;;;;;;;3.03;2.13;;;21.10;99.90;;;;;;5002174;28;20046;-65
2022/07/12 09:02:46;;;;;;;3.60;1.88;;;21.10;99.90;;;;;;5033630;28;20042;-65
2022/07/12 09:05:12;;;;;;;4.32;2.60;;;21.20;99.90;;;;;;5008775;28;20042;-65
2022/07/12 09:07:38;;;;;;;4.38;2.95;;;21.40;99.90;;;;;;5023652;28;20038;-65
2022/07/12 09:10:05;;;;;;;2.70;2.13;;;21.30;99.90;;;;;;4994379;28;20563;-65
2022/07/12 09:12:33;;;;;;;4.30;2.58;;;21.30;99.90;;;;;;4994917;28;20046;-64
2022/07/12 09:15:13;;;;;;;2.97;2.42;;;21.40;99.90;;;;;;4997297;28;20050;-65
2022/07/12 09:17:40;;;;;;;4.82;3.22;;;21.60;99.90;;;;;;4996409;28;20038;-65
2022/07/12 09:20:10;;;;;;;3.42;2.63;;;21.50;99.90;;;;;;5025856;28;20038;-65
2022/07/12 09:22:36;;;;;;;4.40;2.60;;;21.60;99.90;;;;;;5015402;28;20408;-65
2022/07/12 09:25:17;;;;;;;3.72;2.90;;;21.60;99.90;;;;;;5000647;28;20045;-65
2022/07/12 09:27:51;;;;;;;2.83;2.28;;;21.80;99.90;;;;;;5002929;28;20527;-65
2022/07/12 09:30:17;;;;;;;5.43;2.87;;;22.20;99.90;;;;;;5024575;28;20058;-65
2022/07/12 09:36:12;;;;;;;3.95;2.30;;;21.90;99.90;;;;;;5019695;28;20129;-64
2022/07/12 09:39:01;;;;;;;2.70;2.10;;;22.70;99.90;;;;;;4994517;28;20117;-65
2022/07/12 09:41:27;;;;;;;3.22;2.13;;;22.00;99.90;;;;;;4996672;28;20404;-65
2022/07/12 09:43:53;;;;;;;3.00;2.15;;;22.30;99.90;;;;;;4997045;28;20093;-64
2022/07/12 09:46:19;;;;;;;3.50;2.33;;;22.60;99.90;;;;;;5009351;28;20038;-65
2022/07/12 09:48:46;;;;;;;2.60;2.10;;;22.60;99.90;;;;;;5000873;28;20034;-65
2022/07/12 09:51:16;;;;;;;10.85;3.70;;;22.40;99.90;;;;;;4998415;28;20077;-65
2022/07/12 09:53:45;;;;;;;2.70;2.20;;;24.10;99.90;;;;;;4996610;28;20096;-65
2022/07/12 09:56:14;;;;;;;3.42;2.15;;;24.20;99.90;;;;;;4996341;28;20064;-65
2022/07/12 09:59:01;;;;;;;3.33;2.55;;;22.50;99.90;;;;;;4995222;28;20046;-64
2022/07/12 10:01:30;;;;;;;2.58;1.77;;;22.60;99.90;;;;;;5014802;28;20140;-65
2022/07/12 10:03:59;;;;;;;2.92;1.83;;;22.60;99.90;;;;;;5029340;28;20043;-65
2022/07/12 10:06:29;;;;;;;4.90;1.80;;;23.10;99.90;;;;;;5013935;28;20046;-65
2022/07/12 10:08:57;;;;;;;2.33;1.50;;;22.70;99.90;;;;;;5006321;28;20042;-65
2022/07/12 10:11:24;;;;;;;2.00;1.80;;;23.00;99.90;;;;;;5007357;28;20046;-65
2022/07/12 10:13:50;;;;;;;3.17;1.50;;;25.60;99.90;;;;;;4996592;28;20501;-65
2022/07/12 10:16:24;;;;;;;2.40;2.20;;;23.60;99.90;;;;;;5009814;28;20497;-65
2022/07/12 10:19:25;;;;;;;4.75;1.42;;;23.50;99.90;;;;;;5007978;28;20074;-65
2022/07/12 10:21:53;;;;;;;3.17;2.08;;;23.50;99.90;;;;;;5000326;28;20496;-65
2022/07/12 10:24:31;;;;;;;3.22;2.10;;;23.60;99.90;;;;;;5029078;28;20550;-65
2022/07/12 10:27:21;;;;;;;2.28;1.42;;;23.20;99.90;;;;;;5008139;28;20386;-65
2022/07/12 10:29:48;;;;;;;2.90;2.05;;;23.30;99.90;;;;;;4990231;28;20187;-63
2022/07/12 10:32:34;;;;;;;3.10;2.58;;;23.50;99.90;;;;;;5011954;28;20041;-65
2022/07/12 10:35:19;;;;;;;3.08;2.00;;;23.50;99.90;;;;;;5017599;28;20404;-65
2022/07/12 10:38:12;;;;;;;6.47;1.98;;;23.30;99.90;;;;;;4995132;28;20046;-65
2022/07/12 10:40:45;;;;;;;3.75;2.08;;;23.40;99.90;;;;;;5001244;28;20155;-65
2022/07/12 10:43:10;;;;;;;4.82;1.83;;;23.40;99.90;;;;;;5001535;28;20053;-65
2022/07/12 10:45:38;;;;;;;4.95;1.95;;;24.30;99.90;;;;;;5000547;28;20030;-65
2022/07/12 10:48:20;;;;;;;3.75;1.70;;;23.50;99.90;;;;;;5003588;28;20397;-64
2022/07/12 10:50:47;;;;;;;1.95;1.17;;;23.70;99.90;;;;;;5000861;28;20488;-63
2022/07/12 10:53:23;;;;;;;4.82;2.03;;;23.60;99.90;;;;;;5002598;28;20061;-65
2022/07/12 10:56:04;;;;;;;4.05;2.20;;;23.50;99.90;;;;;;5000590;28;20049;-65
2022/07/12 10:58:31;;;;;;;2.53;2.20;;;23.90;99.90;;;;;;5029325;28;20053;-64
2022/07/12 11:00:58;;;;;;;3.15;2.00;;;23.60;99.90;;;;;;4993372;28;20374;-64
2022/07/12 11:03:30;;;;;;;3.90;2.33;;;24.00;99.90;;;;;;4992676;28;20053;-64
2022/07/12 11:06:04;;;;;;;2.50;2.08;;;24.00;99.90;;;;;;5006941;28;20041;-65
2022/07/12 11:08:30;;;;;;;2.10;1.40;;;23.90;99.90;;;;;;5034487;28;20037;-65
2022/07/12 11:10:57;;;;;;;1.60;1.13;;;23.70;99.90;;;;;;4998241;28;20045;-65
2022/07/12 11:13:25;;;;;;;2.80;1.00;;;25.80;99.90;;;;;;5004855;28;20077;-65
2022/07/12 11:15:58;;;;;;;1.23;0.70;;;23.70;99.90;;;;;;5023606;28;20085;-63
2022/07/12 11:18:28;;;;;;;1.30;0.68;;;22.00;99.90;;;;;;5014030;28;20037;-65
2022/07/12 11:20:58;;;;;;;1.17;0.70;;;24.20;99.90;;;;;;5003029;28;20078;-65
2022/07/12 11:23:26;;;;;;;1.27;0.60;;;24.30;99.90;;;;;;5008222;28;20034;-65
2022/07/12 11:25:56;;;;;;;2.10;1.15;;;24.10;99.90;;;;;;5020611;28;20052;-65
2022/07/12 11:28:23;;;;;;;1.77;0.95;;;24.00;99.90;;;;;;5001492;28;20100;-64
2022/07/12 11:30:50;;;;;;;3.10;1.60;;;24.20;99.90;;;;;;4998246;28;20054;-65
2022/07/12 11:33:16;;;;;;;4.18;0.90;;;24.10;99.90;;;;;;5011278;28;20085;-65
2022/07/12 11:35:47;;;;;;;1.48;0.70;;;24.10;99.90;;;;;;4996892;28;20089;-65
2022/07/12 11:38:13;;;;;;;3.70;0.98;;;24.20;99.90;;;;;;4997540;28;20126;-64
2022/07/12 11:40:38;;;;;;;3.35;1.05;;;24.30;99.90;;;;;;5010583;28;20090;-65
2022/07/12 11:43:05;;;;;;;2.55;1.08;;;24.20;99.90;;;;;;4998377;28;20413;-64
2022/07/12 11:45:33;;;;;;;1.10;0.63;;;24.40;99.90;;;;;;5003729;28;20508;-65
2022/07/12 11:48:01;;;;;;;1.70;1.30;;;25.70;99.90;;;;;;5007124;28;20113;-65
2022/07/12 11:50:28;;;;;;;2.08;1.48;;;26.00;99.90;;;;;;4998776;28;20366;-65
2022/07/12 11:52:54;;;;;;;2.53;1.00;;;24.30;99.90;;;;;;4996974;28;20056;-65
2022/07/12 11:55:19;;;;;;;3.30;1.25;;;25.10;99.90;;;;;;4998838;28;20089;-65
2022/07/12 11:57:45;;;;;;;1.70;0.88;;;24.30;99.90;;;;;;5013077;28;20029;-64
2022/07/12 12:00:22;;;;;;;4.03;0.80;;;24.10;99.90;;;;;;5008822;28;20101;-65
2022/07/12 12:02:52;;;;;;;1.77;0.40;;;24.20;99.90;;;;;;4996607;28;20540;-65
2022/07/12 12:05:18;;;;;;;3.00;0.50;;;24.10;99.90;;;;;;4997395;28;20097;-62
2022/07/12 12:07:44;;;;;;;2.17;1.00;;;24.20;99.90;;;;;;4996555;28;20057;-65
2022/07/12 12:10:12;;;;;;;2.90;1.38;;;24.40;99.90;;;;;;4998555;28;20400;-65
2022/07/12 12:12:41;;;;;;;1.98;0.60;;;24.80;99.90;;;;;;5025041;28;20034;-65
2022/07/12 12:15:12;;;;;;;3.75;0.60;;;24.20;99.90;;;;;;5018997;28;20037;-65
2022/07/12 12:17:50;;;;;;;2.35;0.88;;;24.50;99.90;;;;;;4999762;28;20042;-65
2022/07/12 12:20:19;;;;;;;1.95;0.82;;;24.30;99.90;;;;;;4996859;28;20050;-63
2022/07/12 12:22:46;;;;;;;3.00;0.82;;;24.50;99.90;;;;;;5010208;28;20050;-65
2022/07/12 12:25:14;;;;;;;1.70;0.60;;;24.50;99.90;;;;;;4996170;28;20041;-65
2022/07/12 12:27:48;;;;;;;1.20;0.60;;;24.70;99.90;;;;;;4995742;28;20046;-65
2022/07/12 12:30:15;;;;;;;2.70;0.57;;;24.70;99.90;;;;;;5035114;28;20041;-65
2022/07/12 12:32:57;;;;;;;1.33;0.70;;;24.80;99.90;;;;;;5025081;28;20041;-65
2022/07/12 12:35:37;;;;;;;1.83;0.70;;;24.70;99.90;;;;;;5025353;28;20042;-64
2022/07/12 12:38:14;;;;;;;1.25;0.60;;;24.70;99.90;;;;;;4996927;28;20094;-65
2022/07/12 12:40:49;;;;;;;1.45;0.40;;;24.90;99.90;;;;;;5010988;28;20061;-65
2022/07/12 12:43:19;;;;;;;1.20;0.63;;;24.70;99.90;;;;;;5034708;28;20061;-65
2022/07/12 12:45:56;;;;;;;2.03;0.60;;;26.20;99.90;;;;;;5017554;28;20400;-65
2022/07/12 12:48:23;;;;;;;2.35;0.55;;;25.10;99.90;;;;;;5000248;28;20042;-65
2022/07/12 12:50:51;;;;;;;0.82;0.40;;;25.10;99.90;;;;;;5009066;28;20103;-65
2022/07/12 12:53:24;;;;;;;1.45;0.50;;;24.90;99.90;;;;;;5008092;28;20120;-65
2022/07/12 12:55:54;;;;;;;1.00;0.22;;;25.20;99.90;;;;;;5001655;28;20045;-65
2022/07/12 12:58:21;;;;;;;0.85;0.30;;;25.10;99.90;;;;;;5005227;28;20047;-64